createdAt,value
2018-12-15T00:02:03.528Z,101974.08
2018-12-15T00:04:29.577Z,101969.53
2018-12-15T00:06:55.587Z,101970.53
2018-12-15T00:09:21.549Z,101975.17
2018-12-15T00:11:54.661Z,101974.55
2018-12-15T00:14:20.619Z,101971.17
2018-12-15T00:16:46.663Z,101973.86
2018-12-15T00:19:12.684Z,101969.94
2018-12-15T00:21:38.901Z,101975.91
2018-12-15T00:24:04.887Z,101977.62
2018-12-15T00:26:30.915Z,101977.12
2018-12-15T00:28:57.173Z,101969.69
2018-12-15T00:31:23.151Z,101970.48
2018-12-15T00:33:49.152Z,101969.39
2018-12-15T00:36:15.114Z,101976.20
2018-12-15T00:38:41.168Z,101975.71
2018-12-15T00:41:07.125Z,101970.68
2018-12-15T00:43:33.094Z,101970.98
2018-12-15T00:45:59.096Z,101966.69
2018-12-15T00:48:25.040Z,101977.89
2018-12-15T00:50:51.045Z,101979.52
2018-12-15T00:53:17.462Z,101980.08
2018-12-15T00:55:43.460Z,101979.55
2018-12-15T00:58:09.511Z,101976.80
2018-12-15T01:00:35.626Z,101978.09
2018-12-15T01:03:01.681Z,101983.98
2018-12-15T01:05:27.685Z,101984.53
2018-12-15T01:07:53.695Z,101972.78
2018-12-15T01:10:19.741Z,101980.28
2018-12-15T01:12:45.753Z,101983.43
2018-12-15T01:15:11.725Z,101986.37
2018-12-15T01:17:37.688Z,101988.70
2018-12-15T01:20:04.375Z,101989.51
2018-12-15T01:22:30.507Z,101999.28
2018-12-15T01:24:56.538Z,102001.88
2018-12-15T01:27:22.552Z,101992.21
2018-12-15T01:29:49.243Z,101998.36
2018-12-15T01:32:15.230Z,101998.98
2018-12-15T01:34:41.237Z,102006.12
2018-12-15T01:37:07.202Z,101998.83
2018-12-15T01:39:33.205Z,102000.20
2018-12-15T01:41:59.177Z,102007.28
2018-12-15T01:44:25.226Z,102005.08
2018-12-15T01:46:51.288Z,102011.45
2018-12-15T01:49:17.273Z,102015.80
2018-12-15T01:51:43.273Z,102016.51
2018-12-15T01:54:09.249Z,102018.14
2018-12-15T01:56:35.231Z,102016.27
2018-12-15T01:59:01.261Z,102018.14
2018-12-15T02:01:27.203Z,102018.70
2018-12-15T02:03:53.165Z,102017.23
2018-12-15T02:06:19.292Z,102019.83
2018-12-15T02:08:45.261Z,102019.89
2018-12-15T02:11:11.276Z,102017.29
2018-12-15T02:13:37.262Z,102014.62
2018-12-15T02:16:03.209Z,102014.39
2018-12-15T02:18:29.211Z,102012.87
2018-12-15T02:20:55.263Z,102004.78
2018-12-15T02:23:21.208Z,102023.41
2018-12-15T02:25:47.220Z,102014.08
2018-12-15T02:28:13.310Z,102012.12
2018-12-15T02:30:39.308Z,102018.42
2018-12-15T02:33:05.312Z,102012.38
2018-12-15T02:35:31.543Z,102015.11
2018-12-15T02:37:57.563Z,102014.87
2018-12-15T02:40:23.548Z,102018.59
2018-12-15T02:42:49.662Z,102018.36
2018-12-15T02:45:15.651Z,102018.36
2018-12-15T02:47:42.123Z,102012.09
2018-12-15T02:50:08.257Z,102017.64
2018-12-15T02:52:34.218Z,102015.93
2018-12-15T02:55:00.204Z,102019.63
2018-12-15T02:57:26.304Z,102014.73
2018-12-15T02:59:52.300Z,102016.81
2018-12-15T03:02:18.281Z,102004.98
2018-12-15T03:04:44.278Z,102017.13
2018-12-15T03:07:10.244Z,102016.02
2018-12-15T03:09:36.350Z,102015.59
2018-12-15T03:12:02.307Z,102014.33
2018-12-15T03:14:28.299Z,102007.72
2018-12-15T03:17:02.502Z,102009.09
2018-12-15T03:19:28.536Z,102007.62
2018-12-15T03:21:54.488Z,102007.80
2018-12-15T03:24:20.505Z,102003.50
2018-12-15T03:26:51.284Z,102010.18
2018-12-15T03:29:17.501Z,102003.97
2018-12-15T03:31:43.490Z,102003.63
2018-12-15T03:34:09.433Z,102010.20
2018-12-15T03:36:35.452Z,102013.67
2018-12-15T03:39:01.460Z,102013.33
2018-12-15T03:41:27.435Z,102013.83
2018-12-15T03:43:53.560Z,102017.38
2018-12-15T03:46:19.510Z,102018.92
2018-12-15T03:48:45.496Z,102015.66
2018-12-15T03:51:11.448Z,102019.76
2018-12-15T03:53:37.444Z,102011.07
2018-12-15T03:56:03.928Z,102020.51
2018-12-15T03:58:30.029Z,102017.51
2018-12-15T04:00:55.994Z,102012.00
2018-12-15T04:03:22.001Z,102015.45
2018-12-15T04:05:47.960Z,102010.59
2018-12-15T04:08:13.965Z,102017.25
2018-12-15T04:10:39.968Z,102017.48
2018-12-15T04:13:05.982Z,102015.03
2018-12-15T04:15:31.967Z,102018.59
2018-12-15T04:18:03.724Z,102026.41
2018-12-15T04:20:25.969Z,102023.97
2018-12-15T04:22:51.949Z,102025.59
2018-12-15T04:25:17.958Z,102025.44
2018-12-15T04:27:44.045Z,102034.91
2018-12-15T04:30:10.037Z,102033.41
2018-12-15T04:32:36.020Z,102031.00
2018-12-15T04:35:02.159Z,102031.35
2018-12-15T04:37:28.117Z,102028.58
2018-12-15T04:39:54.108Z,102031.02
2018-12-15T04:42:20.057Z,102029.49
2018-12-15T04:44:46.038Z,102033.72
2018-12-15T04:47:12.520Z,102036.30
2018-12-15T04:49:38.585Z,102032.42
2018-12-15T04:52:11.634Z,102037.42
2018-12-15T04:54:37.615Z,102036.02
2018-12-15T04:57:03.673Z,102036.69
2018-12-15T04:59:30.377Z,102039.48
2018-12-15T05:01:56.463Z,102032.53
2018-12-15T05:04:22.445Z,102039.48
2018-12-15T05:06:48.449Z,102039.00
2018-12-15T05:09:14.421Z,102039.19
2018-12-15T05:11:40.509Z,102044.92
2018-12-15T05:14:06.481Z,102047.25
2018-12-15T05:16:32.490Z,102047.09
2018-12-15T05:18:58.485Z,102046.55
2018-12-15T05:21:24.550Z,102048.17
2018-12-15T05:23:50.520Z,102050.32
2018-12-15T05:26:16.492Z,102043.19
2018-12-15T05:28:43.049Z,102047.69
2018-12-15T05:31:09.415Z,102045.47
2018-12-15T05:33:35.729Z,102056.75
2018-12-15T05:36:02.073Z,102048.67
2018-12-15T05:38:28.136Z,102058.09
2018-12-15T05:40:54.160Z,102048.96
2018-12-15T05:43:20.795Z,102048.20
2018-12-15T05:45:46.786Z,102054.83
2018-12-15T05:48:12.762Z,102052.60
2018-12-15T05:50:38.755Z,102054.34
2018-12-15T05:53:04.721Z,102057.27
2018-12-15T05:55:30.732Z,102057.56
2018-12-15T05:57:56.767Z,102057.91
2018-12-15T06:00:22.894Z,102051.66
2018-12-15T06:02:48.981Z,102055.34
2018-12-15T06:05:15.132Z,102056.09
2018-12-15T06:07:41.145Z,102058.83
2018-12-15T06:10:07.144Z,102055.59
2018-12-15T06:12:33.129Z,102055.97
2018-12-15T06:14:59.122Z,102052.09
2018-12-15T06:17:25.139Z,102048.20
2018-12-15T06:19:58.094Z,102051.84
2018-12-15T06:22:24.086Z,102054.55
2018-12-15T06:24:50.059Z,102055.83
2018-12-15T06:27:16.084Z,102053.05
2018-12-15T06:29:42.046Z,102050.77
2018-12-15T06:32:08.048Z,102055.05
2018-12-15T06:34:41.076Z,102062.83
2018-12-15T06:37:07.068Z,102063.27
2018-12-15T06:39:33.028Z,102056.77
2018-12-15T06:41:58.988Z,102056.06
2018-12-15T06:44:25.000Z,102056.48
2018-12-15T06:46:50.978Z,102065.61
2018-12-15T06:49:16.973Z,102062.85
2018-12-15T06:51:42.932Z,102060.85
2018-12-15T06:54:08.922Z,102067.70
2018-12-15T06:56:34.876Z,102064.31
2018-12-15T06:59:00.944Z,102061.84
2018-12-15T07:01:27.376Z,102059.87
2018-12-15T07:03:53.354Z,102063.30
2018-12-15T07:06:19.360Z,102061.61
2018-12-15T07:08:45.433Z,102065.84
2018-12-15T07:11:11.702Z,102065.73
2018-12-15T07:13:37.687Z,102066.72
2018-12-15T07:16:03.685Z,102067.61
2018-12-15T07:18:29.727Z,102065.13
2018-12-15T07:21:02.724Z,102071.22
2018-12-15T07:23:28.875Z,102074.73
2018-12-15T07:25:55.179Z,102076.97
2018-12-15T07:28:21.348Z,102074.09
2018-12-15T07:30:47.366Z,102073.44
2018-12-15T07:33:13.327Z,102065.80
2018-12-15T07:35:39.342Z,102073.44
2018-12-15T07:38:05.328Z,102071.08
2018-12-15T07:40:31.397Z,102073.48
2018-12-15T07:42:57.352Z,102072.77
2018-12-15T07:45:23.323Z,102073.38
2018-12-15T07:47:49.303Z,102071.63
2018-12-15T07:50:15.307Z,102070.33
2018-12-15T07:52:44.609Z,102065.78
2018-12-15T07:55:10.803Z,102060.86
2018-12-15T07:57:36.787Z,102063.32
2018-12-15T08:00:05.178Z,102056.06
2018-12-15T08:02:31.131Z,102067.15
2018-12-15T08:04:57.158Z,102063.92
2018-12-15T08:07:23.147Z,102064.41
2018-12-15T08:09:50.336Z,102070.56
2018-12-15T08:12:22.392Z,102073.77
2018-12-15T08:14:48.404Z,102074.39
2018-12-15T08:17:14.362Z,102074.30
2018-12-15T08:19:40.410Z,102070.91
2018-12-15T08:22:06.384Z,102067.83
2018-12-15T08:24:32.419Z,102071.09
2018-12-15T08:26:58.497Z,102066.91
2018-12-15T08:29:24.480Z,102078.92
2018-12-15T08:31:50.472Z,102079.88
2018-12-15T08:34:16.478Z,102078.88
2018-12-15T08:36:42.479Z,102079.81
2018-12-15T08:39:08.459Z,102076.36
2018-12-15T08:41:34.464Z,102074.25
2018-12-15T08:44:00.629Z,102086.83
2018-12-15T08:46:26.638Z,102083.43
2018-12-15T08:48:52.624Z,102087.11
2018-12-15T08:51:18.754Z,102088.63
2018-12-15T08:53:44.756Z,102091.30
2018-12-15T08:56:10.820Z,102091.74
2018-12-15T08:58:36.890Z,102083.33
2018-12-15T09:01:02.960Z,102082.86
2018-12-15T09:03:28.912Z,102081.48
2018-12-15T09:05:54.902Z,102080.22
2018-12-15T09:08:20.880Z,102087.02
2018-12-15T09:10:46.886Z,102085.07
2018-12-15T09:13:12.980Z,102086.78
2018-12-15T09:15:38.986Z,102081.41
2018-12-15T09:18:05.073Z,102085.14
2018-12-15T09:20:31.154Z,102074.67
2018-12-15T09:22:57.154Z,102080.81
2018-12-15T09:25:23.113Z,102079.39
2018-12-15T09:27:49.139Z,102081.89
2018-12-15T09:30:15.101Z,102078.36
2018-12-15T09:32:41.129Z,102081.78
2018-12-15T09:35:07.106Z,102078.20
2018-12-15T09:37:33.089Z,102077.84
2018-12-15T09:39:59.058Z,102080.86
2018-12-15T09:42:25.051Z,102086.26
2018-12-15T09:44:51.054Z,102079.82
2018-12-15T09:47:17.009Z,102081.75
2018-12-15T09:49:43.018Z,102080.64
2018-12-15T09:52:08.991Z,102080.42
2018-12-15T09:54:34.974Z,102083.12
2018-12-15T09:57:01.056Z,102083.21
2018-12-15T09:59:27.120Z,102086.85
2018-12-15T10:01:53.130Z,102084.26
2018-12-15T10:04:19.118Z,102081.47
2018-12-15T10:06:45.082Z,102087.97
2018-12-15T10:09:11.083Z,102085.23
2018-12-15T10:11:37.059Z,102084.26
2018-12-15T10:14:03.055Z,102077.88
2018-12-15T10:16:29.019Z,102076.80
2018-12-15T10:18:55.039Z,102061.66
2018-12-15T10:21:21.049Z,102062.62
2018-12-15T10:23:47.091Z,102061.09
2018-12-15T10:26:13.079Z,102064.64
2018-12-15T10:28:39.049Z,102059.02
2018-12-15T10:31:11.127Z,102056.16
2018-12-15T10:33:37.179Z,102056.22
2018-12-15T10:36:03.182Z,102050.34
2018-12-15T10:38:29.144Z,102040.81
2018-12-15T10:40:55.164Z,102046.67
2018-12-15T10:43:21.696Z,102044.62
2018-12-15T10:45:47.770Z,102030.94
2018-12-15T10:48:13.721Z,102034.52
2018-12-15T10:50:39.722Z,102030.79
2018-12-15T10:53:05.695Z,102025.77
2018-12-15T10:55:31.708Z,102027.34
2018-12-15T10:57:57.730Z,102026.92
2018-12-15T11:00:25.776Z,102024.41
2018-12-15T11:02:51.796Z,102023.69
2018-12-15T11:05:17.878Z,102018.29
2018-12-15T11:07:43.843Z,102016.40
2018-12-15T11:10:09.824Z,102016.19
2018-12-15T11:12:35.789Z,102018.80
2018-12-15T11:15:01.803Z,102019.59
2018-12-15T11:17:27.868Z,102019.33
2018-12-15T11:19:53.820Z,102018.02
2018-12-15T11:22:20.305Z,102016.25
2018-12-15T11:24:46.273Z,102009.39
2018-12-15T11:27:12.393Z,102008.53
2018-12-15T11:29:38.423Z,102005.73
2018-12-15T11:32:04.421Z,102003.58
2018-12-15T11:34:31.422Z,101999.46
2018-12-15T11:36:57.488Z,101997.59
2018-12-15T11:39:23.547Z,101990.16
2018-12-15T11:41:49.522Z,101996.27
2018-12-15T11:44:15.534Z,101999.02
2018-12-15T11:46:41.540Z,101992.91
2018-12-15T11:49:07.516Z,101994.09
2018-12-15T11:51:33.542Z,101995.50
2018-12-15T11:53:59.518Z,101991.16
2018-12-15T11:56:25.524Z,101991.55
2018-12-15T11:58:51.581Z,101983.97
2018-12-15T12:01:17.656Z,101991.66
2018-12-15T12:03:43.659Z,101989.44
2018-12-15T12:06:09.704Z,101980.20
2018-12-15T12:08:35.694Z,101980.73
2018-12-15T12:11:01.674Z,101977.62
2018-12-15T12:13:27.707Z,101977.77
2018-12-15T12:15:53.659Z,101976.66
2018-12-15T12:18:19.641Z,101970.70
2018-12-15T12:20:45.637Z,101973.06
2018-12-15T12:23:11.586Z,101970.17
2018-12-15T12:25:37.571Z,101971.98
2018-12-15T12:28:03.530Z,101963.15
2018-12-15T12:30:29.545Z,101973.84
2018-12-15T12:32:55.548Z,101969.81
2018-12-15T12:35:21.505Z,101965.25
2018-12-15T12:37:47.499Z,101963.52
2018-12-15T12:40:13.483Z,101971.12
2018-12-15T12:42:39.543Z,101968.66
2018-12-15T12:45:05.587Z,101962.30
2018-12-15T12:47:31.627Z,101965.40
2018-12-15T12:49:57.611Z,101966.31
2018-12-15T12:52:23.583Z,101958.67
2018-12-15T12:54:49.607Z,101963.73
2018-12-15T12:57:15.684Z,101954.33
2018-12-15T12:59:41.644Z,101950.34
2018-12-15T13:02:07.707Z,101951.75
2018-12-15T13:04:33.802Z,101953.62
2018-12-15T13:06:59.789Z,101959.96
2018-12-15T13:09:26.400Z,101953.11
2018-12-15T13:11:52.428Z,101956.80
2018-12-15T13:14:18.958Z,101956.59
2018-12-15T13:16:44.973Z,101954.41
2018-12-15T13:19:10.936Z,101951.83
2018-12-15T13:21:36.969Z,101941.70
2018-12-15T13:24:03.092Z,101957.09
2018-12-15T13:26:29.110Z,101949.02
2018-12-15T13:28:55.161Z,101950.23
2018-12-15T13:31:21.141Z,101942.02
2018-12-15T13:33:47.152Z,101935.95
2018-12-15T13:36:13.779Z,101936.73
2018-12-15T13:38:39.914Z,101941.40
2018-12-15T13:41:06.567Z,101935.70
2018-12-15T13:43:32.639Z,101941.14
2018-12-15T13:46:05.837Z,101939.40
2018-12-15T13:48:31.863Z,101931.69
2018-12-15T13:50:57.841Z,101931.66
2018-12-15T13:53:23.924Z,101931.66
2018-12-15T13:55:49.885Z,101934.41
2018-12-15T13:58:15.983Z,101935.52
2018-12-15T14:00:41.948Z,101938.52
2018-12-15T14:03:07.981Z,101933.87
2018-12-15T14:05:36.422Z,101941.19
2018-12-15T14:08:02.501Z,101935.11
2018-12-15T14:10:28.523Z,101932.39
2018-12-15T14:12:54.619Z,101933.61
2018-12-15T14:15:20.577Z,101933.05
2018-12-15T14:17:46.580Z,101932.45
2018-12-15T14:20:16.690Z,101926.70
2018-12-15T14:22:40.716Z,101915.08
2018-12-15T14:25:06.687Z,101919.08
2018-12-15T14:27:32.765Z,101914.35
2018-12-15T14:29:58.723Z,101910.11
2018-12-15T14:32:24.747Z,101913.72
2018-12-15T14:34:50.708Z,101908.83
2018-12-15T14:37:16.717Z,101902.48
2018-12-15T14:39:42.679Z,101904.60
2018-12-15T14:42:08.671Z,101904.52
2018-12-15T14:44:34.755Z,101895.27
2018-12-15T14:47:00.700Z,101896.12
2018-12-15T14:49:26.812Z,101897.48
2018-12-15T14:51:52.780Z,101885.64
2018-12-15T14:54:18.786Z,101890.01
2018-12-15T14:56:44.799Z,101892.50
2018-12-15T14:59:10.823Z,101886.30
2018-12-15T15:01:36.792Z,101891.61
2018-12-15T15:04:02.816Z,101894.13
2018-12-15T15:06:28.802Z,101885.23
2018-12-15T15:08:54.814Z,101885.02
2018-12-15T15:11:20.760Z,101882.22
2018-12-15T15:13:46.838Z,101883.91
2018-12-15T15:16:12.796Z,101874.92
2018-12-15T15:18:38.864Z,101871.53
2018-12-15T15:21:04.866Z,101866.66
2018-12-15T15:23:30.867Z,101863.41
2018-12-15T15:25:56.814Z,101870.59
2018-12-15T15:28:22.848Z,101864.71
2018-12-15T15:30:48.805Z,101859.03
2018-12-15T15:33:14.816Z,101857.70
2018-12-15T15:35:40.780Z,101861.08
2018-12-15T15:38:06.759Z,101859.80
2018-12-15T15:40:32.759Z,101852.40
2018-12-15T15:42:58.733Z,101844.69
2018-12-15T15:45:24.758Z,101846.29
2018-12-15T15:47:50.718Z,101835.01
2018-12-15T15:50:16.701Z,101835.26
2018-12-15T15:52:42.655Z,101834.41
2018-12-15T15:55:08.681Z,101828.38
2018-12-15T15:57:34.627Z,101826.77
2018-12-15T16:00:00.899Z,101820.94
2018-12-15T16:02:26.873Z,101822.73
2018-12-15T16:04:52.921Z,101818.75
2018-12-15T16:07:18.935Z,101822.88
2018-12-15T16:09:45.200Z,101820.05
2018-12-15T16:12:11.317Z,101814.50
2018-12-15T16:14:37.305Z,101807.00
2018-12-15T16:17:03.311Z,101810.91
2018-12-15T16:19:29.271Z,101800.87
2018-12-15T16:21:55.353Z,101796.95
2018-12-15T16:24:28.241Z,101791.09
2018-12-15T16:26:54.324Z,101784.84
2018-12-15T16:29:20.308Z,101784.77
2018-12-15T16:31:46.278Z,101784.70
2018-12-15T16:34:12.272Z,101789.09
2018-12-15T16:36:38.275Z,101783.59
2018-12-15T16:39:05.556Z,101771.48
2018-12-15T16:41:31.578Z,101773.45
2018-12-15T16:43:57.560Z,101769.06
2018-12-15T16:46:23.570Z,101771.33
2018-12-15T16:48:49.558Z,101774.31
2018-12-15T16:51:15.589Z,101772.91
2018-12-15T16:53:41.553Z,101761.59
2018-12-15T16:56:14.591Z,101766.10
2018-12-15T16:58:40.649Z,101764.84
2018-12-15T17:01:06.800Z,101757.92
2018-12-15T17:03:32.793Z,101754.57
2018-12-15T17:05:58.752Z,101751.61
2018-12-15T17:08:24.744Z,101751.27
2018-12-15T17:10:50.755Z,101752.83
2018-12-15T17:13:16.809Z,101758.42
2018-12-15T17:15:42.817Z,101763.48
2018-12-15T17:18:08.815Z,101768.31
2018-12-15T17:20:34.815Z,101763.03
2018-12-15T17:23:00.893Z,101756.41
2018-12-15T17:25:26.925Z,101749.94
2018-12-15T17:27:52.905Z,101754.44
2018-12-15T17:30:18.907Z,101745.09
2018-12-15T17:32:44.960Z,101745.67
2018-12-15T17:35:10.985Z,101743.09
2018-12-15T17:37:36.967Z,101738.44
2018-12-15T17:40:05.093Z,101733.66
2018-12-15T17:42:31.115Z,101731.38
2018-12-15T17:44:57.172Z,101724.66
2018-12-15T17:47:23.184Z,101717.08
2018-12-15T17:49:49.144Z,101711.03
2018-12-15T17:52:15.379Z,101715.05
2018-12-15T17:54:41.392Z,101712.06
2018-12-15T17:57:08.079Z,101709.34
2018-12-15T17:59:34.112Z,101714.66
2018-12-15T18:02:00.292Z,101704.61
2018-12-15T18:04:26.278Z,101706.08
2018-12-15T18:06:52.277Z,101709.56
2018-12-15T18:09:18.233Z,101706.08
2018-12-15T18:11:44.232Z,101706.20
2018-12-15T18:14:10.328Z,101698.35
2018-12-15T18:16:36.306Z,101690.66
2018-12-15T18:19:02.290Z,101688.73
2018-12-15T18:21:28.289Z,101684.19
2018-12-15T18:23:54.280Z,101680.09
2018-12-15T18:26:20.376Z,101674.20
2018-12-15T18:28:46.357Z,101675.54
2018-12-15T18:31:12.367Z,101673.17
2018-12-15T18:33:38.341Z,101668.45
2018-12-15T18:36:04.369Z,101666.01
2018-12-15T18:38:30.850Z,101657.01
2018-12-15T18:40:56.843Z,101656.82
2018-12-15T18:43:22.893Z,101644.75
2018-12-15T18:45:49.129Z,101646.84
2018-12-15T18:48:15.152Z,101634.81
2018-12-15T18:50:48.075Z,101630.09
2018-12-15T18:53:14.125Z,101627.73
2018-12-15T18:55:40.106Z,101630.31
2018-12-15T18:58:08.223Z,101619.80
2018-12-15T19:00:34.189Z,101618.58
2018-12-15T19:03:00.192Z,101615.56
2018-12-15T19:05:26.184Z,101611.28
2018-12-15T19:07:52.334Z,101620.43
2018-12-15T19:10:18.310Z,101618.27
2018-12-15T19:12:44.326Z,101618.38
2018-12-15T19:15:10.418Z,101613.19
2018-12-15T19:17:36.484Z,101618.14
2018-12-15T19:20:03.104Z,101609.61
2018-12-15T19:22:29.174Z,101603.55
2018-12-15T19:24:59.242Z,101598.69
2018-12-15T19:27:25.493Z,101600.80
2018-12-15T19:29:51.690Z,101596.28
2018-12-15T19:32:17.690Z,101592.42
2018-12-15T19:34:43.670Z,101587.64
2018-12-15T19:37:09.780Z,101581.94
2018-12-15T19:39:35.796Z,101583.45
2018-12-15T19:42:01.768Z,101573.88
2018-12-15T19:44:27.794Z,101589.52
2018-12-15T19:46:53.804Z,101572.09
2018-12-15T19:49:19.796Z,101569.88
2018-12-15T19:51:45.797Z,101565.83
2018-12-15T19:54:11.929Z,101568.62
2018-12-15T19:56:37.921Z,101565.04
2018-12-15T19:59:03.895Z,101564.80
2018-12-15T20:01:29.914Z,101555.83
2018-12-15T20:03:55.945Z,101550.74
2018-12-15T20:06:21.950Z,101554.16
2018-12-15T20:08:49.051Z,101546.34
2018-12-15T20:11:15.073Z,101545.09
2018-12-15T20:13:41.075Z,101539.16
2018-12-15T20:16:07.093Z,101536.14
2018-12-15T20:18:34.812Z,101530.97
2018-12-15T20:21:00.822Z,101527.37
2018-12-15T20:23:26.835Z,101504.59
2018-12-15T20:25:52.927Z,101516.42
2018-12-15T20:28:18.937Z,101516.16
2018-12-15T20:30:44.912Z,101510.09
2018-12-15T20:33:10.931Z,101508.72
2018-12-15T20:35:36.894Z,101501.75
2018-12-15T20:38:03.004Z,101498.42
2018-12-15T20:40:28.989Z,101500.31
2018-12-15T20:42:55.022Z,101490.66
2018-12-15T20:45:21.038Z,101492.00
2018-12-15T20:47:47.111Z,101480.98
2018-12-15T20:50:13.079Z,101476.09
2018-12-15T20:52:39.087Z,101471.56
2018-12-15T20:55:05.413Z,101466.07
2018-12-15T20:57:31.535Z,101461.95
2018-12-15T20:59:57.626Z,101455.41
2018-12-15T21:02:23.712Z,101441.13
2018-12-15T21:04:49.690Z,101442.42
2018-12-15T21:07:15.646Z,101436.44
2018-12-15T21:09:41.801Z,101429.01
2018-12-15T21:12:07.953Z,101423.37
2018-12-15T21:14:40.989Z,101418.05
2018-12-15T21:17:07.100Z,101410.72
2018-12-15T21:19:33.125Z,101415.36
2018-12-15T21:21:59.133Z,101410.17
2018-12-15T21:24:32.053Z,101401.34
2018-12-15T21:26:58.023Z,101394.28
2018-12-15T21:29:24.054Z,101402.61
2018-12-15T21:31:56.434Z,101386.22
2018-12-15T21:34:18.133Z,101392.78
2018-12-15T21:36:44.151Z,101398.72
2018-12-15T21:39:10.118Z,101398.63
2018-12-15T21:41:36.132Z,101384.44
2018-12-15T21:44:02.111Z,101387.80
2018-12-15T21:46:28.117Z,101389.17
2018-12-15T21:48:54.094Z,101389.19
2018-12-15T21:51:20.075Z,101393.37
2018-12-15T21:53:46.071Z,101397.67
2018-12-15T21:56:12.136Z,101394.73
2018-12-15T21:58:38.166Z,101393.43
2018-12-15T22:01:11.035Z,101382.83
2018-12-15T22:03:37.044Z,101384.70
2018-12-15T22:06:03.042Z,101374.69
2018-12-15T22:08:29.015Z,101362.34
2018-12-15T22:10:54.964Z,101361.78
2018-12-15T22:13:21.776Z,101362.55
2018-12-15T22:15:47.855Z,101358.63
2018-12-15T22:18:13.863Z,101362.14
2018-12-15T22:20:40.164Z,101367.66
2018-12-15T22:23:06.221Z,101357.98
2018-12-15T22:25:32.164Z,101362.81
2018-12-15T22:27:58.172Z,101360.44
2018-12-15T22:30:24.130Z,101368.89
2018-12-15T22:32:50.163Z,101359.59
2018-12-15T22:35:16.188Z,101361.06
2018-12-15T22:37:42.166Z,101351.48
2018-12-15T22:40:08.201Z,101344.09
2018-12-15T22:42:34.201Z,101341.06
2018-12-15T22:45:00.144Z,101341.61
2018-12-15T22:47:26.808Z,101333.47
2018-12-15T22:49:52.776Z,101335.89
2018-12-15T22:52:18.761Z,101334.20
2018-12-15T22:54:44.738Z,101323.72
2018-12-15T22:57:10.935Z,101321.99
2018-12-15T22:59:37.023Z,101317.55
2018-12-15T23:02:03.024Z,101319.66
2018-12-15T23:04:29.086Z,101299.88
2018-12-15T23:06:55.073Z,101297.16
2018-12-15T23:09:21.065Z,101291.70
2018-12-15T23:11:47.023Z,101292.91
2018-12-15T23:14:13.047Z,101276.59
2018-12-15T23:16:39.026Z,101281.04
2018-12-15T23:19:05.209Z,101265.53
2018-12-15T23:21:31.365Z,101262.82
2018-12-15T23:23:57.373Z,101245.12
2018-12-15T23:26:23.359Z,101238.06
2018-12-15T23:28:49.311Z,101229.42
2018-12-15T23:31:15.383Z,101213.83
2018-12-15T23:33:41.369Z,101203.44
2018-12-15T23:36:07.373Z,101187.59
2018-12-15T23:38:33.449Z,101184.06
2018-12-15T23:40:59.449Z,101182.03
2018-12-15T23:43:25.417Z,101175.17
2018-12-15T23:45:51.414Z,101175.90
2018-12-15T23:48:17.941Z,101171.95
2018-12-15T23:50:43.945Z,101160.82
2018-12-15T23:53:09.953Z,101160.34
2018-12-15T23:55:35.991Z,101151.23
2018-12-15T23:58:01.980Z,101153.43
